Time;durP1;ratioP1;P1;durP2;ratioP2;P2;SDS_P1;SDS_P2;PMS_P1;PMS_P2;Temp;Humidity;BMP_temperature;BMP_pressure;BME280_temperature;BME280_humidity;BME280_pressure;Samples;Min_cycle;Max_cycle;Signal;HPM_P1;HPM_P2
2024/01/12 00:01:37;;;;;;;2.92;1.42;;;;;;;-148.68;100.00;62903.81;4959414;29;20034;-94
2024/01/12 00:05:01;;;;;;;3.22;2.05;;;;;;;-148.68;100.00;62903.81;4959734;29;20031;-94
2024/01/12 00:08:25;;;;;;;4.55;1.65;;;;;;;-148.68;100.00;62903.81;4959199;29;20026;-94
2024/01/12 00:11:49;;;;;;;2.53;1.40;;;;;;;-148.68;100.00;62903.81;4958919;29;20027;-93
2024/01/12 00:15:13;;;;;;;3.22;1.48;;;;;;;-148.68;100.00;62903.81;4959000;29;20026;-94
2024/01/12 00:18:37;;;;;;;2.47;1.33;;;;;;;-148.68;100.00;62903.81;4958891;28;20058;-93
2024/01/12 00:22:01;;;;;;;;;;;;;;;-148.68;100.00;62903.81;4959543;29;20332;-93
2024/01/12 00:25:25;;;;;;;1.77;1.05;;;;;;;-148.68;100.00;62903.81;4959077;29;19912;-93
2024/01/12 00:28:49;;;;;;;2.45;1.35;;;;;;;-148.68;100.00;62903.81;4958851;29;20035;-93
2024/01/12 00:32:13;;;;;;;1.40;0.93;;;;;;;-148.68;100.00;62903.81;4958495;29;20038;-94
2024/01/12 00:35:37;;;;;;;2.47;1.50;;;;;;;-148.68;100.00;62903.81;4958383;29;20027;-93
2024/01/12 00:39:01;;;;;;;2.70;1.30;;;;;;;-148.68;100.00;62903.81;4958964;29;20031;-93
2024/01/12 00:42:25;;;;;;;3.33;1.25;;;;;;;-148.68;100.00;62903.81;4958515;29;20031;-93
2024/01/12 00:45:49;;;;;;;2.05;1.20;;;;;;;-148.68;100.00;62903.81;4958538;28;20034;-93
2024/01/12 00:49:13;;;;;;;4.00;1.60;;;;;;;-148.68;100.00;62903.81;4958569;29;20031;-93
2024/01/12 00:52:37;;;;;;;2.72;1.60;;;;;;;-148.68;100.00;62903.81;4958351;29;20027;-93
2024/01/12 00:56:01;;;;;;;3.22;1.52;;;;;;;-148.68;100.00;62903.81;4958439;29;20037;-92
2024/01/12 00:59:24;;;;;;;4.45;2.17;;;;;;;-148.68;100.00;62903.81;4958462;29;20031;-93
2024/01/12 01:02:48;;;;;;;2.33;1.52;;;;;;;-148.68;100.00;62903.81;4958495;28;20023;-93
2024/01/12 01:10:33;;;;;;;9.38;4.05;;;;;;;-148.68;100.00;62903.81;4963039;29;20078;-93
2024/01/12 01:13:57;;;;;;;4.75;2.53;;;;;;;-148.68;100.00;62903.81;4961923;29;20034;-92
2024/01/12 01:17:21;;;;;;;5.60;2.00;;;;;;;-148.68;100.00;62903.81;4962058;29;20031;-93
2024/01/12 01:20:45;;;;;;;3.83;1.77;;;;;;;-148.68;100.00;62903.81;4962007;28;20030;-93
2024/01/12 01:24:09;;;;;;;1.42;1.00;;;;;;;-148.68;100.00;62903.81;4962195;29;20077;-92
2024/01/12 01:27:33;;;;;;;2.42;1.35;;;;;;;-148.68;100.00;62903.81;4962037;29;20027;-93
2024/01/12 01:30:58;;;;;;;5.25;2.30;;;;;;;-148.68;100.00;62903.81;4961708;29;20034;-93
2024/01/12 01:34:21;;;;;;;6.35;3.03;;;;;;;-148.68;100.00;62903.81;4961544;29;20026;-93
2024/01/12 01:37:45;;;;;;;3.72;1.90;;;;;;;-148.68;100.00;62903.81;4961718;29;20039;-93
2024/01/12 01:41:09;;;;;;;3.63;1.63;;;;;;;-148.68;100.00;62903.81;4961841;29;20044;-92
2024/01/12 01:44:33;;;;;;;4.47;2.90;;;;;;;-148.68;100.00;62903.81;4961461;29;20030;-93
2024/01/12 01:47:57;;;;;;;4.13;2.17;;;;;;;-148.68;100.00;62903.81;4961677;29;20019;-93
2024/01/12 01:51:21;;;;;;;9.13;3.70;;;;;;;-148.68;100.00;62903.81;4961448;29;20456;-93
2024/01/12 01:54:45;;;;;;;8.57;3.38;;;;;;;-148.68;100.00;62903.81;4961349;29;20110;-93
2024/01/12 01:58:10;;;;;;;7.38;3.28;;;;;;;-148.68;100.00;62903.81;4961438;29;20038;-94
2024/01/12 02:01:34;;;;;;;10.05;4.15;;;;;;;-148.68;100.00;62903.81;4961359;28;20121;-93
2024/01/12 02:04:58;;;;;;;;;;;;;;;-148.68;100.00;62903.81;4961570;29;20118;-93
2024/01/12 02:08:22;;;;;;;10.93;3.57;;;;;;;-148.68;100.00;62903.81;4945067;29;19957;-93
2024/01/12 02:11:46;;;;;;;13.55;4.53;;;;;;;-148.68;100.00;62903.81;4960939;29;20106;-93
2024/01/12 02:15:10;;;;;;;8.90;3.40;;;;;;;-148.68;100.00;62903.81;4960790;29;20019;-92
2024/01/12 02:18:34;;;;;;;8.02;3.30;;;;;;;-148.68;100.00;62903.81;4962799;28;20083;-92
2024/01/12 02:21:58;;;;;;;5.03;2.17;;;;;;;-148.68;100.00;62903.81;4974734;28;20073;-92
2024/01/12 02:25:44;;;;;;;4.25;1.77;;;;;;;-148.68;100.00;62903.81;4971900;28;20019;-92
2024/01/12 02:29:08;;;;;;;4.90;1.75;;;;;;;-148.68;100.00;62903.81;4964150;28;20556;-92
2024/01/12 02:32:32;;;;;;;3.03;1.42;;;;;;;-148.68;100.00;62903.81;4963494;28;20531;-92
2024/01/12 02:36:03;;;;;;;2.60;1.33;;;;;;;-148.68;100.00;62903.81;4964035;28;20435;-92
2024/01/12 02:39:27;;;;;;;1.95;1.05;;;;;;;-148.68;100.00;62903.81;4964367;28;20038;-93
2024/01/12 02:42:51;;;;;;;1.63;0.98;;;;;;;-148.68;100.00;62903.81;4963714;28;20380;-93
2024/01/12 02:46:15;;;;;;;3.22;1.60;;;;;;;-148.68;100.00;62903.81;4963710;28;20483;-92
2024/01/12 02:49:39;;;;;;;1.95;1.00;;;;;;;-148.68;100.00;62903.81;4963269;28;20031;-92
2024/01/12 02:53:03;;;;;;;2.88;1.40;;;;;;;-148.68;100.00;62903.81;4963374;28;20030;-92
2024/01/12 02:56:27;;;;;;;2.47;1.20;;;;;;;-148.68;100.00;62903.81;4963348;28;20031;-92
2024/01/12 02:59:51;;;;;;;2.45;1.08;;;;;;;-148.68;100.00;62903.81;4973021;28;20391;-91
2024/01/12 03:03:14;;;;;;;2.75;1.02;;;;;;;-148.68;100.00;62903.81;4982769;28;20029;-92
2024/01/12 03:06:38;;;;;;;3.60;1.17;;;;;;;-148.68;100.00;62903.81;4982438;28;20026;-92
2024/01/12 03:10:02;;;;;;;4.72;1.30;;;;;;;-148.68;100.00;62903.81;4982160;28;20527;-92
2024/01/12 03:13:26;;;;;;;1.30;0.60;;;;;;;-148.68;100.00;62903.81;4982634;28;20435;-91
2024/01/12 03:16:50;;;;;;;1.50;0.85;;;;;;;-148.68;100.00;62903.81;4977668;28;20029;-91
2024/01/12 03:20:14;;;;;;;0.80;0.40;;;;;;;-148.68;100.00;62903.81;4982480;28;20039;-91
2024/01/12 03:23:38;;;;;;;0.70;0.32;;;;;;;-148.68;100.00;62903.81;4982274;28;20036;-91
2024/01/12 03:27:03;;;;;;;1.27;0.70;;;;;;;-148.68;100.00;62903.81;4981974;28;20207;-91
2024/01/12 03:30:27;;;;;;;0.70;0.40;;;;;;;-148.68;100.00;62903.81;4963995;28;20031;-91
2024/01/12 03:33:51;;;;;;;2.03;0.90;;;;;;;-148.68;100.00;62903.81;4964372;28;20045;-92
2024/01/12 03:37:15;;;;;;;0.85;0.50;;;;;;;-148.68;100.00;62903.81;4978262;28;20317;-92
2024/01/12 03:40:39;;;;;;;1.77;0.60;;;;;;;-148.68;100.00;62903.81;4962815;28;20317;-93
2024/01/12 03:44:03;;;;;;;0.65;0.52;;;;;;;-148.68;100.00;62903.81;4962755;28;20029;-91
2024/01/12 03:47:27;;;;;;;0.60;0.40;;;;;;;-148.68;100.00;62903.81;4978323;28;20031;-92
2024/01/12 03:50:51;;;;;;;1.17;0.60;;;;;;;-148.68;100.00;62903.81;4943030;29;20089;-92
2024/01/12 03:54:15;;;;;;;1.30;0.60;;;;;;;-148.68;100.00;62903.81;4943402;29;20073;-91
2024/01/12 03:57:39;;;;;;;0.90;0.60;;;;;;;-148.68;100.00;62903.81;4942956;29;20102;-91
2024/01/12 04:01:09;;;;;;;1.17;0.68;;;;;;;-148.68;100.00;62903.81;4977733;28;20038;-92
2024/01/12 04:04:33;;;;;;;3.33;0.90;;;;;;;-148.68;100.00;62903.81;4981736;28;20057;-91
2024/01/12 04:07:57;;;;;;;1.27;0.70;;;;;;;-148.68;100.00;62903.81;4981143;28;20084;-91
2024/01/12 04:11:24;;;;;;;1.65;0.82;;;;;;;-148.68;100.00;62903.81;4983203;28;20101;-92
2024/01/12 04:14:48;;;;;;;1.85;0.70;;;;;;;-148.68;100.00;62903.81;4961911;28;20376;-91
2024/01/12 04:18:12;;;;;;;1.02;0.70;;;;;;;-148.68;100.00;62903.81;4961341;28;20034;-92
2024/01/12 04:21:36;;;;;;;0.80;0.60;;;;;;;-148.68;100.00;62903.81;4968392;28;20117;-91
2024/01/12 04:25:00;;;;;;;2.15;0.73;;;;;;;-148.68;100.00;62903.81;4961827;28;20034;-91
2024/01/12 04:28:24;;;;;;;1.08;0.68;;;;;;;-148.68;100.00;62903.81;4961386;28;20023;-91
2024/01/12 04:31:48;;;;;;;0.70;0.47;;;;;;;-148.68;100.00;62903.81;4972292;28;20030;-91
2024/01/12 04:35:12;;;;;;;0.95;0.45;;;;;;;-148.68;100.00;62903.81;4980918;28;20030;-91
2024/01/12 04:38:36;;;;;;;1.17;0.70;;;;;;;-148.68;100.00;62903.81;4980427;28;20031;-91
2024/01/12 04:42:00;;;;;;;1.67;0.60;;;;;;;-148.68;100.00;62903.81;4987920;28;20031;-92
2024/01/12 04:45:24;;;;;;;1.73;0.70;;;;;;;-148.68;100.00;62903.81;4961686;28;20031;-91
2024/01/12 04:48:48;;;;;;;0.88;0.55;;;;;;;-148.68;100.00;62903.81;4961370;28;20495;-91
2024/01/12 04:52:12;;;;;;;0.55;0.45;;;;;;;-148.68;100.00;62903.81;4977320;28;20061;-91
2024/01/12 04:55:36;;;;;;;1.27;0.60;;;;;;;-148.68;100.00;62903.81;4961335;28;20144;-90
2024/01/12 04:59:00;;;;;;;0.85;0.60;;;;;;;-148.68;100.00;62903.81;4961071;28;20041;-91
2024/01/12 05:02:24;;;;;;;0.98;0.65;;;;;;;-148.68;100.00;62903.81;4962669;28;20082;-92
2024/01/12 05:05:48;;;;;;;1.30;0.70;;;;;;;-148.68;100.00;62903.81;4960857;28;20107;-92
2024/01/12 05:09:12;;;;;;;2.03;0.65;;;;;;;-148.68;100.00;62903.81;4961431;28;20121;-92
2024/01/12 05:12:36;;;;;;;1.52;0.80;;;;;;;-148.68;100.00;62903.81;4969709;28;20034;-93
2024/01/12 05:16:00;;;;;;;0.75;0.55;;;;;;;-148.68;100.00;62903.81;4961269;28;20026;-94
2024/01/12 05:19:24;;;;;;;1.42;0.77;;;;;;;-148.68;100.00;62903.81;4960936;28;20089;-93
2024/01/12 05:22:47;;;;;;;2.90;0.73;;;;;;;-148.68;100.00;62903.81;4961574;28;20027;-91
2024/01/12 05:26:12;;;;;;;2.28;0.93;;;;;;;-148.68;100.00;62903.81;4961254;28;20335;-92
2024/01/12 05:29:36;;;;;;;;;;;;;;;-148.68;100.00;62903.81;4958026;29;20034;-91
2024/01/12 05:33:00;;;;;;;1.33;0.73;;;;;;;-148.68;100.00;62903.81;4984861;28;20056;-93
2024/01/12 05:36:24;;;;;;;;;;;;;;;-148.68;100.00;62903.81;4980961;28;20038;-92
2024/01/12 05:39:48;;;;;;;1.95;0.77;;;;;;;-148.68;100.00;62903.81;4957260;29;19920;-91
2024/01/12 05:43:12;;;;;;;0.77;0.70;;;;;;;-148.68;100.00;62903.81;4963302;28;20138;-92
2024/01/12 05:46:36;;;;;;;2.92;0.60;;;;;;;-148.68;100.00;62903.81;4960052;28;20034;-89
2024/01/12 05:50:00;;;;;;;1.23;0.63;;;;;;;-148.68;100.00;62903.81;4995795;28;20416;-90
2024/01/12 05:53:25;;;;;;;1.80;1.00;;;;;;;-148.68;100.00;62903.81;4979894;28;20056;-89
2024/01/12 05:56:50;;;;;;;1.52;0.90;;;;;;;-148.68;100.00;62903.81;4962330;28;20037;-90
2024/01/12 06:00:14;;;;;;;2.15;0.90;;;;;;;-148.68;100.00;62903.81;4951941;28;20046;-90
2024/01/12 06:03:38;;;;;;;1.20;0.80;;;;;;;-148.68;100.00;62903.81;4980084;28;20042;-90
2024/01/12 06:07:02;;;;;;;2.08;0.80;;;;;;;-148.68;100.00;62903.81;4980245;28;20053;-91
2024/01/12 06:10:26;;;;;;;1.42;0.80;;;;;;;-148.68;100.00;62903.81;4980331;28;20029;-91
2024/01/12 06:13:50;;;;;;;1.63;0.90;;;;;;;-148.68;100.00;62903.81;4980358;28;20035;-91
2024/01/12 06:17:15;;;;;;;1.13;0.73;;;;;;;-148.68;100.00;62903.81;4963848;28;20117;-90
2024/01/12 06:20:39;;;;;;;4.03;0.88;;;;;;;-148.68;100.00;62903.81;4963628;28;20082;-91
2024/01/12 06:24:03;;;;;;;1.48;0.90;;;;;;;-148.68;100.00;62903.81;4963898;28;20038;-91
2024/01/12 06:27:27;;;;;;;2.40;1.05;;;;;;;-148.68;100.00;62903.81;4960564;29;20041;-92
2024/01/12 06:30:53;;;;;;;1.15;0.75;;;;;;;-148.68;100.00;62903.81;4961503;29;20106;-91
2024/01/12 06:34:17;;;;;;;1.33;0.77;;;;;;;-148.68;100.00;62903.81;4960589;29;20117;-91
2024/01/12 06:37:41;;;;;;;1.13;0.60;;;;;;;-148.68;100.00;62903.81;4976151;28;20031;-91
2024/01/12 06:41:05;;;;;;;1.02;0.60;;;;;;;-148.68;100.00;62903.81;4976284;28;20027;-92
2024/01/12 06:44:29;;;;;;;0.80;0.50;;;;;;;-148.68;100.00;62903.81;4960307;29;20038;-92
2024/01/12 06:47:53;;;;;;;0.90;0.70;;;;;;;-148.68;100.00;62903.81;4976499;28;20385;-92
2024/01/12 06:51:23;;;;;;;6.47;0.90;;;;;;;-148.68;100.00;62903.81;4960604;29;20118;-92
2024/01/12 06:54:47;;;;;;;1.98;0.90;;;;;;;-148.68;100.00;62903.81;4976038;28;20020;-91
2024/01/12 06:58:11;;;;;;;1.58;0.82;;;;;;;-148.68;100.00;62903.81;4975542;28;20058;-92
2024/01/12 07:01:35;;;;;;;3.47;0.70;;;;;;;-148.68;100.00;62903.81;4976144;28;20448;-92
2024/01/12 07:04:59;;;;;;;0.80;0.50;;;;;;;-148.68;100.00;62903.81;4975983;28;20069;-91
2024/01/12 07:08:23;;;;;;;4.95;0.77;;;;;;;-148.68;100.00;62903.81;4959948;29;20495;-92
2024/01/12 07:11:47;;;;;;;1.50;0.73;;;;;;;-148.68;100.00;62903.81;4975834;28;20019;-91
2024/01/12 07:15:11;;;;;;;1.48;0.65;;;;;;;-148.68;100.00;62903.81;4959804;29;20035;-91
2024/01/12 07:18:35;;;;;;;;;;;;;;;-148.68;100.00;62903.81;4975707;28;20038;-92
2024/01/12 07:21:59;;;;;;;3.15;0.85;;;;;;;-148.68;100.00;62903.81;4943635;29;19915;-92
2024/01/12 07:25:23;;;;;;;1.38;0.68;;;;;;;-148.68;100.00;62903.81;4960528;29;20035;-92
2024/01/12 07:28:47;;;;;;;0.73;0.55;;;;;;;-148.68;100.00;62903.81;4959305;29;20173;-91
2024/01/12 07:32:11;;;;;;;4.78;0.60;;;;;;;-148.68;100.00;62903.81;4960330;29;20031;-92
2024/01/12 07:35:35;;;;;;;1.45;0.73;;;;;;;-148.68;100.00;62903.81;4959431;29;20042;-92
2024/01/12 07:38:59;;;;;;;2.70;1.10;;;;;;;-148.68;100.00;62903.81;4959222;29;20522;-92
2024/01/12 07:42:23;;;;;;;1.88;1.00;;;;;;;-148.68;100.00;62903.81;4975380;28;20086;-92
2024/01/12 07:45:47;;;;;;;2.40;0.90;;;;;;;-148.68;100.00;62903.81;4975297;28;20031;-91
2024/01/12 07:49:11;;;;;;;1.40;0.85;;;;;;;-148.68;100.00;62903.81;4959485;29;20027;-91
2024/01/12 07:52:35;;;;;;;2.58;1.30;;;;;;;-148.68;100.00;62903.81;4959082;29;20352;-92
2024/01/12 07:55:59;;;;;;;1.63;0.80;;;;;;;-148.68;100.00;62903.81;4975126;28;20094;-92
2024/01/12 07:59:23;;;;;;;;;;;;;;;-148.68;100.00;62903.81;4974791;28;20031;-91
2024/01/12 08:02:52;;;;;;;2.10;0.80;;;;;;;-148.68;100.00;62903.81;4959197;29;19910;-92
2024/01/12 08:06:16;;;;;;;2.08;0.85;;;;;;;-148.68;100.00;62903.81;4958901;29;20062;-91
2024/01/12 08:09:40;;;;;;;1.50;0.90;;;;;;;-148.68;100.00;62903.81;4974298;28;20031;-91
2024/01/12 08:13:05;;;;;;;2.47;1.20;;;;;;;-148.68;100.00;62903.81;4958599;29;20035;-92
2024/01/12 08:16:30;;;;;;;1.17;1.00;;;;;;;-148.68;100.00;62903.81;4974565;28;20393;-92
2024/01/12 08:19:54;;;;;;;1.60;0.88;;;;;;;-148.68;100.00;62903.81;4973803;28;20030;-91
2024/01/12 08:23:18;;;;;;;1.70;0.80;;;;;;;-148.68;100.00;62903.81;4958234;29;20035;-92
2024/01/12 08:26:43;;;;;;;1.10;0.90;;;;;;;-148.68;100.00;62903.81;4958558;29;20023;-91
2024/01/12 08:30:08;;;;;;;2.67;0.88;;;;;;;-148.68;100.00;62903.81;4958354;29;20027;-91
2024/01/12 08:33:32;;;;;;;1.73;0.82;;;;;;;-148.68;100.00;62903.81;4958382;29;20325;-91
2024/01/12 08:36:55;;;;;;;1.10;0.65;;;;;;;-148.68;100.00;62903.81;4958333;29;20042;-92
2024/01/12 08:40:19;;;;;;;1.45;0.82;;;;;;;-148.68;100.00;62903.81;4974221;28;20027;-92
2024/01/12 08:43:44;;;;;;;1.10;0.77;;;;;;;-148.68;100.00;62903.81;4958290;29;20321;-91
2024/01/12 08:47:08;;;;;;;;;;;;;;;-148.68;100.00;62903.81;4974679;28;20023;-91
2024/01/12 08:50:33;;;;;;;2.25;1.02;;;;;;;-148.68;100.00;62903.81;4958132;29;19965;-91
2024/01/12 08:53:57;;;;;;;1.17;0.70;;;;;;;-148.68;100.00;62903.81;4958229;29;20035;-90
2024/01/12 08:57:21;;;;;;;3.35;0.75;;;;;;;-148.68;100.00;62903.81;4958402;29;20031;-91
2024/01/12 09:00:45;;;;;;;1.15;0.80;;;;;;;-148.68;100.00;62903.81;4973952;28;20035;-91
2024/01/12 09:04:09;;;;;;;1.30;0.82;;;;;;;-148.68;100.00;62903.81;4974149;28;20441;-91
2024/01/12 09:07:33;;;;;;;1.30;0.82;;;;;;;-148.68;100.00;62903.81;4974234;28;20031;-91
2024/01/12 09:10:57;;;;;;;3.00;0.98;;;;;;;-148.68;100.00;62903.81;4958233;29;20023;-91
2024/01/12 09:14:21;;;;;;;2.92;0.85;;;;;;;-148.68;100.00;62903.81;4958484;29;20031;-92
2024/01/12 09:17:45;;;;;;;1.63;0.88;;;;;;;-148.68;100.00;62903.81;4973485;28;20023;-91
2024/01/12 09:21:09;;;;;;;3.22;1.33;;;;;;;-148.68;100.00;62903.81;4973928;28;20095;-91
2024/01/12 09:24:33;;;;;;;;;;;;;;;-148.68;100.00;62903.81;4974216;28;20030;-91
2024/01/12 09:27:57;;;;;;;1.33;0.85;;;;;;;-148.68;100.00;62903.81;4941561;29;20217;-89
2024/01/12 09:31:21;;;;;;;2.08;0.85;;;;;;;-148.68;100.00;62903.81;4977883;28;20023;-92
2024/01/12 09:34:45;;;;;;;1.65;0.98;;;;;;;-148.68;100.00;62903.81;4977244;28;20027;-90
2024/01/12 09:38:09;;;;;;;1.65;1.05;;;;;;;-148.68;100.00;62903.81;4961538;29;20496;-92
2024/01/12 09:42:00;;;;;;;2.28;1.08;;;;;;;-148.68;100.00;62903.81;4961433;29;20075;-92
2024/01/12 09:45:25;;;;;;;1.55;1.02;;;;;;;-148.68;100.00;62903.81;4960429;28;20039;-92
2024/01/12 09:48:49;;;;;;;1.20;0.82;;;;;;;-148.68;100.00;62903.81;4961375;29;20031;-91
2024/01/12 09:52:13;;;;;;;;;;;;;;;-148.68;100.00;62903.81;4977890;28;20155;-90
2024/01/12 09:55:37;;;;;;;1.13;0.77;;;;;;;-148.68;100.00;62903.81;4961426;29;20231;-89
2024/01/12 09:59:03;;;;;;;1.77;1.10;;;;;;;-148.68;100.00;62903.81;4961711;29;20046;-91
2024/01/12 10:02:27;;;;;;;1.73;1.00;;;;;;;-148.68;100.00;62903.81;4976914;28;20372;-92
2024/01/12 10:05:51;;;;;;;1.10;0.75;;;;;;;-148.68;100.00;62903.81;4977233;28;20047;-90
2024/01/12 10:09:17;;;;;;;1.92;0.90;;;;;;;-148.68;100.00;62903.81;4960492;29;20117;-89
2024/01/12 10:12:41;;;;;;;2.22;1.02;;;;;;;-148.68;100.00;62903.81;4961235;29;20034;-89
2024/01/12 10:16:07;;;;;;;1.20;0.90;;;;;;;-148.68;100.00;62903.81;4961075;29;20039;-89
2024/01/12 10:19:31;;;;;;;2.08;1.02;;;;;;;-148.68;100.00;62903.81;4961585;29;20019;-89
2024/01/12 10:22:58;;;;;;;2.03;1.30;;;;;;;-148.68;100.00;62903.81;4961254;29;20054;-88
2024/01/12 10:26:22;;;;;;;2.05;1.10;;;;;;;-148.68;100.00;62903.81;4976838;28;20417;-91
2024/01/12 10:29:46;;;;;;;1.77;1.00;;;;;;;-148.68;100.00;62903.81;4961178;29;20105;-91
2024/01/12 10:33:10;;;;;;;2.20;0.98;;;;;;;-148.68;100.00;62903.81;4960580;29;20027;-89
2024/01/12 10:36:34;;;;;;;1.38;0.93;;;;;;;-148.68;100.00;62903.81;4960477;29;20031;-88
2024/01/12 10:39:59;;;;;;;1.80;1.10;;;;;;;-148.68;100.00;62903.81;4975950;28;20019;-89
2024/01/12 10:43:24;;;;;;;3.67;1.10;;;;;;;-148.68;100.00;62903.81;4960892;29;20129;-89
2024/01/12 10:46:51;;;;;;;2.65;1.27;;;;;;;-148.68;100.00;62903.81;4976460;28;20039;-89
2024/01/12 10:50:16;;;;;;;1.88;0.93;;;;;;;-148.68;100.00;62903.81;4960649;29;20127;-89
2024/01/12 10:54:01;;;;;;;1.77;1.10;;;;;;;-148.68;100.00;62903.81;4960521;29;20086;-89
2024/01/12 10:57:26;;;;;;;4.63;1.08;;;;;;;-148.68;100.00;62903.81;4960387;29;20031;-89
2024/01/12 11:00:50;;;;;;;2.35;1.20;;;;;;;-148.68;100.00;62903.81;4960412;29;20031;-91
2024/01/12 11:04:15;;;;;;;2.25;0.98;;;;;;;-148.68;100.00;62903.81;4975855;28;20038;-91
2024/01/12 11:07:42;;;;;;;2.58;1.20;;;;;;;-148.68;100.00;62903.81;4975871;28;20031;-91
2024/01/12 11:11:06;;;;;;;2.60;1.25;;;;;;;-148.68;100.00;62903.81;4959822;29;20019;-92
2024/01/12 11:14:31;;;;;;;2.58;1.40;;;;;;;-148.68;100.00;62903.81;4975709;28;20035;-92
2024/01/12 11:17:54;;;;;;;;;;;;;;;-148.68;100.00;62903.81;4959910;29;20031;-89
2024/01/12 11:21:22;;;;;;;2.58;1.42;;;;;;;-148.68;100.00;62903.81;4959514;29;19914;-92
2024/01/12 11:24:46;;;;;;;2.78;1.30;;;;;;;-148.68;100.00;62903.81;4959682;29;20086;-92
2024/01/12 11:28:10;;;;;;;2.05;1.10;;;;;;;-148.68;100.00;62903.81;4959787;29;20341;-92
2024/01/12 11:31:38;;;;;;;3.00;0.90;;;;;;;-148.68;100.00;62903.81;4959288;29;20031;-92
2024/01/12 11:35:14;;;;;;;2.55;1.20;;;;;;;-148.68;100.00;62903.81;4958964;29;20027;-92
2024/01/12 11:38:39;;;;;;;1.75;1.00;;;;;;;-148.68;100.00;62903.81;4959215;29;20109;-92
2024/01/12 11:42:10;;;;;;;2.22;1.10;;;;;;;-148.68;100.00;62903.81;4959509;29;20046;-92
2024/01/12 11:45:39;;;;;;;1.88;1.02;;;;;;;-148.68;100.00;62903.81;4959489;29;20129;-92
2024/01/12 11:49:04;;;;;;;3.05;1.10;;;;;;;-148.68;100.00;62903.81;4959057;29;20089;-93
2024/01/12 11:52:28;;;;;;;1.73;1.00;;;;;;;-148.68;100.00;62903.81;4958431;28;20031;-92
2024/01/12 11:55:53;;;;;;;1.60;1.08;;;;;;;-148.68;100.00;62903.81;4959043;29;20062;-93
2024/01/12 11:59:17;;;;;;;2.33;1.00;;;;;;;-148.68;100.00;62903.81;4958774;29;20034;-91
2024/01/12 12:02:41;;;;;;;2.38;0.85;;;;;;;-148.68;100.00;62903.81;4974727;28;20043;-93
2024/01/12 12:06:10;;;;;;;2.27;1.00;;;;;;;-148.68;100.00;62903.81;4958909;29;20058;-92
2024/01/12 12:09:34;;;;;;;3.58;1.02;;;;;;;-148.68;100.00;62903.81;4958909;29;20302;-92
2024/01/12 12:12:58;;;;;;;1.23;0.80;;;;;;;-148.68;100.00;62903.81;4958751;29;20038;-92
2024/01/12 12:16:23;;;;;;;0.95;0.70;;;;;;;-148.68;100.00;62903.81;4958996;29;20372;-90
2024/01/12 12:19:47;;;;;;;1.33;0.80;;;;;;;-148.68;100.00;62903.81;4974491;28;20448;-92
2024/01/12 12:23:11;;;;;;;1.88;0.88;;;;;;;-148.68;100.00;62903.81;4974390;28;20031;-92
2024/01/12 12:26:35;;;;;;;1.23;0.90;;;;;;;-148.68;100.00;62903.81;4961694;28;20041;-91
2024/01/12 12:30:00;;;;;;;1.17;0.70;;;;;;;-148.68;100.00;62903.81;4961666;28;20027;-92
2024/01/12 12:33:25;;;;;;;2.10;0.77;;;;;;;-148.68;100.00;62903.81;4961747;28;20700;-91
2024/01/12 12:37:06;;;;;;;2.00;1.00;;;;;;;-148.68;100.00;62903.81;4966098;28;20092;-92
2024/01/12 12:40:32;;;;;;;1.17;0.70;;;;;;;-148.68;100.00;62903.81;4961635;28;20041;-92
2024/01/12 12:43:57;;;;;;;3.80;0.95;;;;;;;-148.68;100.00;62903.81;4961567;28;20037;-92
2024/01/12 12:47:21;;;;;;;;;;;;;;;-148.68;100.00;62903.81;4943152;29;20053;-93
2024/01/12 12:50:45;;;;;;;0.90;0.77;;;;;;;-148.68;100.00;62903.81;4961292;28;20406;-93
2024/01/12 12:54:09;;;;;;;0.77;0.60;;;;;;;-148.68;100.00;62903.81;4961759;28;20073;-93
2024/01/12 12:57:33;;;;;;;1.70;0.87;;;;;;;-148.68;100.00;62903.81;4961430;28;20031;-92
2024/01/12 13:00:58;;;;;;;1.70;0.73;;;;;;;-148.68;100.00;62903.81;4961334;28;20306;-93
2024/01/12 13:04:25;;;;;;;26.50;11.65;;;;;;;-148.68;100.00;62903.81;4965231;28;20034;-92
2024/01/12 13:07:49;;;;;;;225.90;77.00;;;;;;;-148.68;100.00;62903.81;4967906;28;20034;-91
2024/01/12 13:11:13;;;;;;;20.17;7.18;;;;;;;-148.68;100.00;62903.81;4980082;28;20433;-92
2024/01/12 13:14:37;;;;;;;114.72;36.05;;;;;;;-148.68;100.00;62903.81;4973387;28;20030;-92
2024/01/12 13:18:01;;;;;;;398.40;127.15;;;;;;;-148.68;100.00;62903.81;4983676;28;20034;-92
2024/01/12 13:21:25;;;;;;;458.00;183.63;;;;;;;-148.68;100.00;62903.81;4967524;28;20467;-93
2024/01/12 13:24:49;;;;;;;180.35;75.70;;;;;;;-148.68;100.00;62903.81;4987561;28;20069;-92
2024/01/12 13:28:13;;;;;;;2.22;1.20;;;;;;;-148.68;100.00;62903.81;4967892;28;20030;-92
2024/01/12 13:31:43;;;;;;;0.90;0.80;;;;;;;-148.68;100.00;62903.81;4964149;28;20027;-91
2024/01/12 13:35:08;;;;;;;1.70;0.90;;;;;;;-148.68;100.00;62903.81;4978781;28;20282;-92
2024/01/12 13:38:32;;;;;;;7.25;4.60;;;;;;;-148.68;100.00;62903.81;4982520;28;20035;-91
2024/01/12 13:42:00;;;;;;;2.55;1.52;;;;;;;-148.68;100.00;62903.81;4971815;28;20030;-90
2024/01/12 13:45:27;;;;;;;12.30;2.45;;;;;;;-148.68;100.00;62903.81;4963042;28;20045;-91
2024/01/12 13:48:52;;;;;;;1.90;1.45;;;;;;;-148.68;100.00;62903.81;4967493;28;20034;-91
2024/01/12 13:52:16;;;;;;;2.45;1.70;;;;;;;-148.68;100.00;62903.81;4967223;28;20081;-91
2024/01/12 13:55:40;;;;;;;2.25;1.33;;;;;;;-148.68;100.00;62903.81;4967406;28;20403;-92
2024/01/12 13:59:04;;;;;;;2.53;1.20;;;;;;;-148.68;100.00;62903.81;4967288;28;20170;-92
2024/01/12 14:02:28;;;;;;;3.03;1.35;;;;;;;-148.68;100.00;62903.81;4967193;28;20041;-92
2024/01/12 14:05:54;;;;;;;2.78;1.95;;;;;;;-148.68;100.00;62903.81;4984881;28;20037;-92
2024/01/12 14:09:19;;;;;;;2.95;1.20;;;;;;;-148.68;100.00;62903.81;4986686;28;20324;-93
2024/01/12 14:12:43;;;;;;;6.03;3.55;;;;;;;-148.68;100.00;62903.81;4979200;28;20027;-92
2024/01/12 14:16:07;;;;;;;4.93;2.58;;;;;;;-148.68;100.00;62903.81;4964218;28;20042;-91
2024/01/12 14:19:31;;;;;;;4.20;2.85;;;;;;;-148.68;100.00;62903.81;4964049;28;20065;-92
2024/01/12 14:22:55;;;;;;;2.05;1.20;;;;;;;-148.68;100.00;62903.81;4964331;28;20039;-91
2024/01/12 14:26:19;;;;;;;3.72;2.13;;;;;;;-148.68;100.00;62903.81;4963962;28;20379;-92
2024/01/12 14:29:43;;;;;;;2.33;1.60;;;;;;;-148.68;100.00;62903.81;4963691;28;20133;-92
2024/01/12 14:33:08;;;;;;;3.60;2.05;;;;;;;-148.68;100.00;62903.81;4979817;28;20258;-92
2024/01/12 14:36:32;;;;;;;2.85;1.17;;;;;;;-148.68;100.00;62903.81;4979678;28;20030;-92
2024/01/12 14:39:56;;;;;;;8.07;4.20;;;;;;;-148.68;100.00;62903.81;4979735;28;20121;-91
2024/01/12 14:43:20;;;;;;;3.72;1.77;;;;;;;-148.68;100.00;62903.81;4979667;28;20027;-92
2024/01/12 14:46:44;;;;;;;2.95;1.35;;;;;;;-148.68;100.00;62903.81;4979828;28;20029;-92
2024/01/12 14:50:08;;;;;;;2.35;1.38;;;;;;;-148.68;100.00;62903.81;4979845;28;20026;-91
2024/01/12 14:53:38;;;;;;;3.20;1.63;;;;;;;-148.68;100.00;62903.81;4963727;28;20019;-92
2024/01/12 14:57:03;;;;;;;6.07;3.58;;;;;;;-148.68;100.00;62903.81;4979484;28;20031;-92
2024/01/12 15:00:27;;;;;;;2.40;1.67;;;;;;;-148.68;100.00;62903.81;4979871;28;20023;-92
2024/01/12 15:03:52;;;;;;;2.03;1.30;;;;;;;-148.68;100.00;62903.81;4979459;28;20487;-92
2024/01/12 15:07:35;;;;;;;3.40;1.70;;;;;;;-148.68;100.00;62903.81;4963438;28;20332;-92
2024/01/12 15:10:59;;;;;;;3.67;2.20;;;;;;;-148.68;100.00;62903.81;4982658;28;20033;-92
2024/01/12 15:14:25;;;;;;;4.18;2.50;;;;;;;-148.68;100.00;62903.81;4963121;28;20085;-92
2024/01/12 15:17:49;;;;;;;15.02;5.38;;;;;;;-148.68;100.00;62903.81;4978865;28;20095;-91
2024/01/12 15:21:13;;;;;;;5.22;2.20;;;;;;;-148.68;100.00;62903.81;4963028;28;20031;-92
2024/01/12 15:24:37;;;;;;;10.55;4.60;;;;;;;-148.68;100.00;62903.81;4963231;28;20038;-92
2024/01/12 15:28:01;;;;;;;8.27;3.70;;;;;;;-148.68;100.00;62903.81;4962592;28;20468;-91
2024/01/12 15:31:24;;;;;;;5.82;2.72;;;;;;;-148.68;100.00;62903.81;4963146;28;20038;-92
2024/01/12 15:34:48;;;;;;;4.50;2.42;;;;;;;-148.68;100.00;62903.81;4962962;28;20440;-91
2024/01/12 15:38:12;;;;;;;8.27;2.22;;;;;;;-148.68;100.00;62903.81;4962773;28;20483;-92